Ewing, NE (68735)

7:27 PM CDT on May 29, 2015 (GMT -0500)
Deloit 12 south 2 west of Ewing | | Change Station
CLOSE
Current Station
Personal Weather Station
Location: Ewing, NE
Elevation: 1965 ft
Nearby Weather Stations

Elev 1965 ft 42.09 °N, 98.38 °W | Updated 0 second ago

Overcast
Overcast
50.9 °F
Feels Like 50.9 °F
N
19.0
Wind Variable Wind from NNW
Gusts 24.0 mph

Today
High -- | Low -- °F
--% Chance of Precip.
Yesterday
High -- | Low -- °F
Precip. -- in
6:01 AM 9:00 PM
Waxing Gibbous, 87% visible
Pressure 30.16 in
Visibility 10.0 miles
Clouds Mostly Cloudy 900 ft
Overcast 1400 ft
Dew Point 48 °F
Humidity 89%
Rainfall 0.04 in
Snow Depth Not available.
UV 0.0 out of 12
Pollen 1.20 out of 12
Air Quality Not available.
Flu Activity No Activity
METAR KONL 300015Z AUTO 34017G20KT 10SM DZ BKN009 OVC014 10/10 A3016 RMK AO2 P0001 T01010096

More Conditions Fewer Conditions

Pressure 30.16 in
Visibility 10.0 miles
Clouds Mostly Cloudy 900 ft
Overcast 1400 ft
Dew Point 48 °F
Humidity 89%
Rainfall 0.04 in
Snow Depth Not available.
UV 0.0 out of 12
Pollen 1.20 out of 12
Air Quality Not available.
Flu Activity No Activity
METAR KONL 300015Z AUTO 34017G20KT 10SM DZ BKN009 OVC014 10/10 A3016 RMK AO2 P0001 T01010096

More Conditions Fewer Conditions

Nowcast | as of 6:58 PM CDT on May 29, 2015

At 650 PM CDT Doppler radar indicated light to moderate rain covering the central and eastern sandhills...moving southeast at 15 mph. The rain will generally fall at the rate of 1/10 of an inch or less per hour with locally higher amounts. This rain was associated with a strong cold front sweeping through western and north central Nebraska. The rain will gradually end this evening with dry weather developing from west to east between 9 and 11 PM CDT.

×

10-Day Weather Forecast

Almanac

Astronomy

May. 29, 2015 Rise Set
Actual Time
Civil Twilight
Nautical Twilight
Astronomical Twilight
Moon
Length of Visible Light
Length of Day
Tomorrow will be .
, % of the Moon is Illuminated

Today's Extremes

State Highs State Lows

Community

WunderPhotos

Upload Photos

1,825,411 photos uploaded!

WunderBlogs® & News

Nearby

Air Quality

  Air Quality AQ Index Pollutant
Not available.

Snow Depth

Station Depth Elevation

Earthquake Activity

City Distance Mag. Time & Date
Minimum magnitude displayed is 2.5.

Coastal Water Temperatures

Place Temperature

Stations

Nearby Weather Stations

Station Location Temp. Windchill Dew Point Humidity Wind Precip. Elev Updated Type